createdAt,value
2023-02-19T00:00:20.885Z,21.00
2023-02-19T00:03:13.650Z,9.60
2023-02-19T00:05:44.251Z,8.40
2023-02-19T00:08:14.500Z,6.60
2023-02-19T00:10:44.794Z,6.70
2023-02-19T00:13:16.143Z,7.90
2023-02-19T00:15:46.293Z,7.40
2023-02-19T00:18:16.725Z,7.80
2023-02-19T00:20:47.333Z,7.20
2023-02-19T00:23:17.716Z,7.40
2023-02-19T00:25:48.132Z,6.40
2023-02-19T00:28:19.051Z,7.90
2023-02-19T00:30:49.370Z,7.60
2023-02-19T00:33:19.667Z,7.40
2023-02-19T00:35:50.421Z,7.60
2023-02-19T00:38:20.636Z,8.00
2023-02-19T00:40:50.852Z,9.60
2023-02-19T00:43:22.190Z,9.20
2023-02-19T00:45:52.966Z,9.30
2023-02-19T00:48:23.339Z,7.40
2023-02-19T00:50:53.471Z,7.70
2023-02-19T00:53:24.435Z,7.70
2023-02-19T00:55:55.027Z,9.10
2023-02-19T00:58:25.616Z,9.60
2023-02-19T01:00:55.980Z,7.90
2023-02-19T01:03:26.720Z,6.90
2023-02-19T01:05:56.994Z,6.60
2023-02-19T01:08:28.137Z,6.50
2023-02-19T01:10:58.515Z,6.30
2023-02-19T01:13:29.060Z,6.20
2023-02-19T01:16:06.263Z,7.10
2023-02-19T01:18:37.212Z,8.70
2023-02-19T01:21:08.929Z,7.60
2023-02-19T01:23:39.899Z,8.10
2023-02-19T01:26:12.558Z,8.00
2023-02-19T01:28:43.310Z,6.80
2023-02-19T01:31:16.638Z,6.70
2023-02-19T01:33:47.978Z,6.50
2023-02-19T01:36:18.535Z,7.90
2023-02-19T01:38:49.528Z,8.00
2023-02-19T01:41:22.578Z,6.00
2023-02-19T01:43:59.777Z,5.00
2023-02-19T01:46:32.407Z,5.70
2023-02-19T01:49:05.561Z,5.00
2023-02-19T01:51:38.928Z,5.30
2023-02-19T01:54:11.235Z,6.90
2023-02-19T01:56:44.309Z,8.90
2023-02-19T01:59:15.314Z,10.40
2023-02-19T02:01:45.693Z,7.70
2023-02-19T02:04:17.183Z,7.50
2023-02-19T02:06:50.506Z,11.40
2023-02-19T02:09:40.280Z,9.30
2023-02-19T02:12:12.554Z,6.70
2023-02-19T02:14:45.328Z,5.40
2023-02-19T02:17:19.530Z,6.50
2023-02-19T02:20:21.102Z,5.60
2023-02-19T02:22:55.595Z,5.70
2023-02-19T02:25:41.396Z,5.60
2023-02-19T02:28:28.096Z,5.30
2023-02-19T02:31:03.047Z,6.80
2023-02-19T02:33:39.372Z,6.80
2023-02-19T02:36:15.502Z,6.70
2023-02-19T02:38:48.651Z,6.60
2023-02-19T02:41:18.870Z,7.90
2023-02-19T02:43:49.133Z,9.40
2023-02-19T02:46:23.156Z,10.80
2023-02-19T02:48:56.268Z,10.00
2023-02-19T02:51:29.799Z,7.70
2023-02-19T02:54:20.527Z,6.30
2023-02-19T02:56:51.821Z,7.40
2023-02-19T02:59:24.479Z,7.50
2023-02-19T03:02:12.694Z,6.50
2023-02-19T03:05:07.590Z,7.00
2023-02-19T03:07:39.386Z,7.40
2023-02-19T03:10:12.783Z,8.80
2023-02-19T03:13:01.769Z,7.80
2023-02-19T03:15:55.693Z,8.40
2023-02-19T03:18:46.190Z,8.00
2023-02-19T03:21:18.434Z,7.70
2023-02-19T03:24:06.580Z,8.20
2023-02-19T03:26:38.847Z,7.80
2023-02-19T03:29:26.350Z,7.00
2023-02-19T03:31:59.997Z,5.60
2023-02-19T03:34:33.045Z,6.80
2023-02-19T03:37:09.995Z,7.30
2023-02-19T03:39:46.334Z,8.70
2023-02-19T03:42:21.684Z,8.50
2023-02-19T03:45:10.939Z,9.40
2023-02-19T03:47:47.982Z,8.10
2023-02-19T03:52:56.650Z,7.20
2023-02-19T03:55:31.099Z,8.40
2023-02-19T03:58:04.993Z,8.50
2023-02-19T04:00:39.523Z,9.20
2023-02-19T04:03:16.327Z,10.00
2023-02-19T04:05:50.932Z,8.60
2023-02-19T04:08:22.910Z,9.90
2023-02-19T04:10:54.431Z,9.20
2023-02-19T04:13:27.180Z,8.80
2023-02-19T04:16:01.484Z,8.30
2023-02-19T04:18:33.999Z,7.90
2023-02-19T04:21:05.951Z,9.10
2023-02-19T04:23:39.257Z,7.60
2023-02-19T04:26:10.262Z,8.30
2023-02-19T04:28:43.075Z,7.70
2023-02-19T04:31:14.159Z,7.80
2023-02-19T04:33:45.356Z,7.30
2023-02-19T04:36:15.703Z,7.90
2023-02-19T04:38:46.806Z,8.10
2023-02-19T04:41:18.418Z,8.00
2023-02-19T04:43:48.581Z,7.60
2023-02-19T04:46:19.374Z,7.90
2023-02-19T04:48:52.097Z,6.30
2023-02-19T04:51:22.803Z,8.40
2023-02-19T04:53:53.273Z,6.70
2023-02-19T04:56:24.163Z,8.80
2023-02-19T04:58:54.372Z,9.50
2023-02-19T05:01:24.645Z,7.90
2023-02-19T05:03:56.194Z,12.90
2023-02-19T05:06:30.370Z,11.10
2023-02-19T05:09:03.079Z,8.60
2023-02-19T05:11:33.623Z,7.70
2023-02-19T05:14:04.323Z,6.80
2023-02-19T05:16:36.506Z,6.60
2023-02-19T05:19:08.202Z,7.50
2023-02-19T05:21:41.719Z,9.60
2023-02-19T05:24:13.885Z,8.00
2023-02-19T05:26:45.734Z,8.40
2023-02-19T05:29:17.070Z,8.40
2023-02-19T05:31:48.771Z,7.60
2023-02-19T05:34:19.196Z,7.10
2023-02-19T05:36:50.867Z,6.40
2023-02-19T05:39:21.499Z,6.30
2023-02-19T05:41:52.396Z,6.20
2023-02-19T05:44:22.991Z,6.50
2023-02-19T05:46:53.467Z,6.00
2023-02-19T05:49:23.979Z,4.60
2023-02-19T05:51:55.255Z,5.00
2023-02-19T05:54:25.493Z,3.60
2023-02-19T05:56:55.948Z,4.70
2023-02-19T05:59:26.963Z,5.10
2023-02-19T06:01:58.103Z,3.70
2023-02-19T06:04:28.704Z,3.60
2023-02-19T06:06:59.353Z,4.50
2023-02-19T06:09:29.632Z,3.40
2023-02-19T06:12:00.064Z,3.70
2023-02-19T06:14:30.555Z,4.70
2023-02-19T06:17:01.375Z,4.50
2023-02-19T06:19:31.646Z,3.60
2023-02-19T06:22:02.003Z,4.70
2023-02-19T06:24:32.605Z,4.10
2023-02-19T06:27:02.824Z,4.60
2023-02-19T06:29:34.169Z,4.60
2023-02-19T06:32:04.929Z,3.90
2023-02-19T06:34:35.891Z,4.80
2023-02-19T06:37:06.217Z,5.60
2023-02-19T06:39:37.971Z,4.30
2023-02-19T06:42:08.581Z,4.30
2023-02-19T06:44:38.812Z,5.00
2023-02-19T06:47:09.128Z,3.10
2023-02-19T06:49:40.576Z,2.90
2023-02-19T06:52:11.162Z,4.10
2023-02-19T06:54:43.711Z,4.40
2023-02-19T06:57:14.574Z,3.30
2023-02-19T06:59:45.461Z,2.30
2023-02-19T07:02:15.825Z,2.40
2023-02-19T07:04:47.184Z,1.50
2023-02-19T07:07:17.359Z,3.60
2023-02-19T07:09:47.802Z,2.50
2023-02-19T07:12:18.062Z,3.90
2023-02-19T07:14:48.666Z,2.50
2023-02-19T07:17:19.381Z,2.10
2023-02-19T07:19:49.927Z,2.10
2023-02-19T07:22:20.491Z,2.00
2023-02-19T07:24:52.271Z,2.30
2023-02-19T07:27:22.516Z,1.40
2023-02-19T07:29:52.864Z,1.90
2023-02-19T07:32:23.758Z,1.80
2023-02-19T07:34:54.333Z,2.60
2023-02-19T07:37:25.757Z,1.90
2023-02-19T07:39:56.327Z,3.30
2023-02-19T07:42:28.027Z,1.90
2023-02-19T07:45:00.719Z,2.80
2023-02-19T07:47:31.769Z,3.10
2023-02-19T07:50:03.116Z,4.30
2023-02-19T07:52:37.048Z,3.00
2023-02-19T07:55:08.437Z,4.70
2023-02-19T07:57:39.156Z,3.60
2023-02-19T08:00:12.272Z,3.60
2023-02-19T08:03:00.869Z,4.40
2023-02-19T08:05:32.901Z,5.40
2023-02-19T08:08:03.598Z,4.90
2023-02-19T08:10:51.426Z,4.40
2023-02-19T08:13:25.748Z,3.60
2023-02-19T08:16:10.902Z,3.20
2023-02-19T08:18:47.953Z,3.70
2023-02-19T08:21:18.652Z,3.90
2023-02-19T08:23:51.205Z,4.90
2023-02-19T08:26:21.961Z,4.30
2023-02-19T08:28:52.272Z,4.20
2023-02-19T08:31:22.707Z,5.20
2023-02-19T08:33:53.996Z,4.60
2023-02-19T08:36:24.608Z,4.50
2023-02-19T08:38:55.000Z,5.70
2023-02-19T08:41:25.364Z,4.30
2023-02-19T08:43:56.411Z,5.50
2023-02-19T08:46:27.299Z,4.60
2023-02-19T08:48:57.803Z,4.60
2023-02-19T08:51:28.073Z,5.60
2023-02-19T08:53:59.356Z,5.30
2023-02-19T08:56:29.731Z,5.80
2023-02-19T08:59:00.310Z,5.10
2023-02-19T09:01:31.373Z,4.50
2023-02-19T09:04:02.865Z,4.90
2023-02-19T09:06:33.181Z,4.70
2023-02-19T09:09:03.334Z,5.20
2023-02-19T09:11:33.563Z,4.30
2023-02-19T09:14:07.208Z,5.20
2023-02-19T09:16:37.694Z,5.20
2023-02-19T09:19:08.311Z,4.30
2023-02-19T09:21:38.386Z,5.70
2023-02-19T09:24:10.589Z,5.40
2023-02-19T09:26:41.183Z,4.80
2023-02-19T09:29:12.928Z,6.00
2023-02-19T09:31:44.286Z,5.20
2023-02-19T09:34:14.941Z,5.70
2023-02-19T09:36:45.833Z,6.10
2023-02-19T09:39:16.341Z,5.30
2023-02-19T09:41:50.207Z,5.00
2023-02-19T09:44:26.275Z,5.10
2023-02-19T09:46:56.816Z,5.70
2023-02-19T09:49:34.386Z,6.00
2023-02-19T09:52:09.992Z,5.60
2023-02-19T09:54:40.516Z,4.90
2023-02-19T09:57:15.667Z,5.30
2023-02-19T09:59:49.721Z,7.30
2023-02-19T10:02:21.907Z,4.80
2023-02-19T10:04:52.905Z,4.10
2023-02-19T10:07:25.871Z,4.60
2023-02-19T10:09:57.918Z,5.30
2023-02-19T10:12:30.648Z,5.20
2023-02-19T10:15:05.210Z,4.80
2023-02-19T10:17:37.116Z,5.20
2023-02-19T10:20:10.133Z,4.80
2023-02-19T10:22:40.725Z,4.50
2023-02-19T10:25:15.173Z,5.10
2023-02-19T10:27:45.746Z,6.70
2023-02-19T10:30:23.801Z,7.10
2023-02-19T10:33:05.847Z,5.70
2023-02-19T10:35:38.128Z,7.10
2023-02-19T10:38:08.732Z,5.20
2023-02-19T10:40:46.025Z,6.30
2023-02-19T10:43:25.514Z,4.80
2023-02-19T10:46:03.970Z,4.80
2023-02-19T10:48:37.234Z,5.80
2023-02-19T10:51:12.180Z,5.20
2023-02-19T10:53:45.312Z,4.20
2023-02-19T10:56:23.763Z,5.50
2023-02-19T10:58:54.879Z,5.20
2023-02-19T11:01:26.731Z,5.40
2023-02-19T11:04:17.093Z,4.40
2023-02-19T11:06:47.560Z,4.60
2023-02-19T11:09:26.411Z,5.60
2023-02-19T11:11:59.231Z,5.20
2023-02-19T11:14:34.227Z,5.40
2023-02-19T11:17:06.316Z,5.90
2023-02-19T11:19:39.987Z,5.20
2023-02-19T11:22:31.184Z,4.40
2023-02-19T11:25:05.606Z,5.30
2023-02-19T11:27:36.914Z,3.80
2023-02-19T11:30:34.463Z,4.50
2023-02-19T11:46:23.444Z,3.80
2023-02-19T11:49:00.567Z,3.60
2023-02-19T11:51:44.196Z,4.60
2023-02-19T11:54:45.467Z,5.20
2023-02-19T11:57:33.546Z,5.20
2023-02-19T12:00:28.404Z,4.40
2023-02-19T12:03:36.748Z,3.60
2023-02-19T12:06:20.531Z,4.20
2023-02-19T12:09:21.320Z,4.10
2023-02-19T12:12:06.110Z,4.00
2023-02-19T12:14:56.601Z,3.70
2023-02-19T12:17:47.372Z,5.40
2023-02-19T12:20:31.931Z,4.50
2023-02-19T12:23:19.425Z,4.00
2023-02-19T12:25:59.595Z,4.00
2023-02-19T12:34:49.474Z,3.70
2023-02-19T12:37:36.459Z,4.20
2023-02-19T12:40:22.447Z,4.50
2023-02-19T12:43:10.585Z,3.60
2023-02-19T12:45:47.276Z,4.20
2023-02-19T12:48:36.075Z,2.90
2023-02-19T12:51:16.581Z,4.50
2023-02-19T12:53:58.473Z,4.60
2023-02-19T12:56:34.820Z,3.20
2023-02-19T12:59:12.716Z,3.30
2023-02-19T13:01:51.209Z,4.60
2023-02-19T13:04:34.962Z,4.00
2023-02-19T13:07:11.969Z,3.70
2023-02-19T13:09:53.809Z,4.90
2023-02-19T13:12:33.093Z,3.80
2023-02-19T13:15:14.632Z,4.50
2023-02-19T13:18:01.639Z,3.90
2023-02-19T13:20:41.144Z,3.20
2023-02-19T13:23:36.204Z,4.40
2023-02-19T13:26:27.978Z,3.60
2023-02-19T13:29:21.104Z,3.80
2023-02-19T13:32:12.483Z,3.30
2023-02-19T13:34:58.335Z,3.60
2023-02-19T13:37:39.019Z,3.30
2023-02-19T13:40:24.779Z,4.40
2023-02-19T13:43:02.995Z,4.50
2023-02-19T13:45:39.795Z,3.30
2023-02-19T13:48:30.351Z,3.30
2023-02-19T13:51:47.093Z,3.90
2023-02-19T13:54:29.894Z,3.60
2023-02-19T13:57:27.301Z,4.30
2023-02-19T14:00:01.600Z,3.30
2023-02-19T14:02:38.558Z,4.30
2023-02-19T14:07:58.762Z,3.90
2023-02-19T14:11:02.797Z,4.10
2023-02-19T14:14:07.185Z,5.30
2023-02-19T14:17:18.242Z,3.70
2023-02-19T14:19:54.732Z,4.30
2023-02-19T14:23:06.148Z,4.50
2023-02-19T14:25:49.150Z,3.30
2023-02-19T14:28:27.603Z,3.40
2023-02-19T14:31:03.531Z,3.40
2023-02-19T14:33:38.388Z,2.90
2023-02-19T14:36:28.500Z,3.50
2023-02-19T14:39:07.895Z,3.50
2023-02-19T14:41:48.969Z,4.40
2023-02-19T14:44:25.778Z,3.70
2023-02-19T14:47:01.794Z,3.80
2023-02-19T14:49:43.191Z,3.80
2023-02-19T14:52:19.691Z,4.30
2023-02-19T14:54:55.371Z,4.30
2023-02-19T14:57:32.764Z,4.40
2023-02-19T15:00:22.307Z,3.40
2023-02-19T15:02:57.990Z,4.00
2023-02-19T15:05:38.550Z,3.20
2023-02-19T15:08:19.117Z,2.80
2023-02-19T15:10:53.655Z,2.40
2023-02-19T15:13:32.829Z,3.10
2023-02-19T15:16:06.832Z,3.10
2023-02-19T15:18:41.725Z,3.30
2023-02-19T15:21:25.809Z,3.20
2023-02-19T15:24:06.369Z,3.80
2023-02-19T15:26:42.330Z,2.70
2023-02-19T15:29:18.212Z,1.90
2023-02-19T15:31:54.293Z,3.20
2023-02-19T15:34:31.265Z,2.50
2023-02-19T15:37:11.617Z,1.90
2023-02-19T15:39:48.459Z,2.30
2023-02-19T15:42:27.841Z,2.00
2023-02-19T15:45:06.644Z,1.50
2023-02-19T15:47:44.367Z,3.00
2023-02-19T15:50:20.883Z,3.40
2023-02-19T15:53:02.114Z,3.90
2023-02-19T15:55:40.897Z,3.60
2023-02-19T15:58:26.079Z,2.40
2023-02-19T16:01:04.816Z,1.50
2023-02-19T16:03:41.328Z,1.80
2023-02-19T16:06:17.221Z,2.30
2023-02-19T16:09:22.214Z,2.30
2023-02-19T16:12:00.271Z,1.90
2023-02-19T16:14:37.687Z,2.20
2023-02-19T16:17:38.332Z,2.00
2023-02-19T16:20:33.502Z,3.60
2023-02-19T16:23:15.044Z,2.60
2023-02-19T16:25:52.904Z,2.20
2023-02-19T16:28:35.719Z,1.50
2023-02-19T16:31:18.158Z,1.70
2023-02-19T16:33:55.042Z,1.90
2023-02-19T16:36:38.540Z,1.40
2023-02-19T16:39:27.392Z,1.90
2023-02-19T16:42:20.634Z,1.40
2023-02-19T16:44:55.052Z,1.30
2023-02-19T16:47:38.526Z,1.70
2023-02-19T16:50:19.265Z,1.50
2023-02-19T16:52:56.904Z,1.40
2023-02-19T16:55:33.044Z,1.00
2023-02-19T16:58:09.092Z,0.80
2023-02-19T17:00:42.670Z,1.70
2023-02-19T17:03:19.375Z,1.30
2023-02-19T17:05:54.115Z,1.60
2023-02-19T17:08:40.089Z,2.10
2023-02-19T17:11:17.500Z,1.90
2023-02-19T17:13:51.759Z,3.00
2023-02-19T17:16:27.569Z,2.60
2023-02-19T17:19:01.533Z,3.50
2023-02-19T17:21:35.243Z,3.40
2023-02-19T17:24:09.695Z,2.20
2023-02-19T17:26:43.308Z,2.00
2023-02-19T17:29:19.024Z,2.30
2023-02-19T17:31:52.793Z,2.30
2023-02-19T17:34:27.449Z,2.40
2023-02-19T17:37:00.898Z,2.90
2023-02-19T17:39:34.557Z,3.20
2023-02-19T17:42:08.773Z,3.00
2023-02-19T17:44:42.951Z,2.40
2023-02-19T17:47:16.876Z,2.40
2023-02-19T17:49:53.089Z,2.50
2023-02-19T17:52:29.767Z,2.80
2023-02-19T17:55:03.428Z,2.50
2023-02-19T17:57:37.169Z,2.00
2023-02-19T18:00:17.822Z,2.00
2023-02-19T18:02:52.090Z,2.40
2023-02-19T18:05:27.646Z,2.20
2023-02-19T18:08:03.100Z,2.80
2023-02-19T18:10:36.571Z,2.50
2023-02-19T18:13:11.780Z,2.70
2023-02-19T18:15:45.336Z,2.70
2023-02-19T18:18:19.309Z,2.80
2023-02-19T18:20:54.473Z,2.40
2023-02-19T18:23:28.302Z,3.00
2023-02-19T18:26:02.182Z,2.90
2023-02-19T18:28:40.945Z,3.50
2023-02-19T18:31:15.198Z,2.80
2023-02-19T18:33:50.479Z,3.10
2023-02-19T18:36:26.830Z,3.80
2023-02-19T18:39:00.805Z,3.30
2023-02-19T18:41:36.982Z,3.10
2023-02-19T18:44:14.323Z,3.10
2023-02-19T18:46:52.682Z,3.00
2023-02-19T18:49:26.512Z,3.70
2023-02-19T18:52:02.448Z,3.10
2023-02-19T18:54:50.471Z,2.40
2023-02-19T18:57:33.681Z,3.00
2023-02-19T19:00:09.500Z,3.10
2023-02-19T19:02:54.642Z,3.40
2023-02-19T19:05:33.913Z,2.40
2023-02-19T19:08:09.496Z,2.70
2023-02-19T19:10:43.971Z,1.70
2023-02-19T19:13:31.874Z,1.60
2023-02-19T19:16:14.467Z,1.40
2023-02-19T19:18:50.494Z,1.20
2023-02-19T19:21:27.252Z,0.90
2023-02-19T19:26:51.536Z,0.80
2023-02-19T19:29:26.084Z,2.10
2023-02-19T19:32:03.328Z,1.90
2023-02-19T19:34:40.295Z,1.20
2023-02-19T19:37:15.418Z,1.20
2023-02-19T19:39:49.486Z,0.90
2023-02-19T19:42:22.908Z,0.50
2023-02-19T19:45:01.960Z,0.50
2023-02-19T19:47:38.137Z,0.60
2023-02-19T19:50:22.270Z,0.80
2023-02-19T19:53:01.862Z,0.40
2023-02-19T19:55:41.465Z,0.50
2023-02-19T19:58:17.301Z,0.30
2023-02-19T20:01:04.982Z,0.60
2023-02-19T20:06:11.433Z,0.30
2023-02-19T20:08:45.181Z,0.60
2023-02-19T20:11:23.776Z,0.50
2023-02-19T20:13:58.949Z,0.60
2023-02-19T20:16:35.267Z,0.80
2023-02-19T20:19:09.676Z,0.60
2023-02-19T20:21:43.722Z,0.70
2023-02-19T20:24:19.813Z,0.50
2023-02-19T20:26:53.577Z,0.70
2023-02-19T20:29:29.833Z,0.30
2023-02-19T20:32:04.681Z,0.70
2023-02-19T20:34:38.560Z,0.70
2023-02-19T20:37:12.739Z,0.70
2023-02-19T20:39:46.969Z,0.60
2023-02-19T20:42:23.733Z,0.80
2023-02-19T20:44:57.674Z,1.20
2023-02-19T20:47:32.924Z,0.70
2023-02-19T20:50:09.271Z,0.70
2023-02-19T20:52:45.422Z,0.90
2023-02-19T20:55:19.880Z,1.10
2023-02-19T20:57:53.681Z,1.50
2023-02-19T21:00:28.122Z,1.10
2023-02-19T21:03:01.828Z,1.20
2023-02-19T21:05:37.792Z,0.90
2023-02-19T21:08:12.502Z,1.20
2023-02-19T21:10:47.943Z,0.80
2023-02-19T21:13:22.426Z,0.90
2023-02-19T21:15:57.638Z,0.80
2023-02-19T21:18:32.481Z,1.40
2023-02-19T21:21:06.943Z,1.90
2023-02-19T21:23:42.213Z,1.30
2023-02-19T21:26:16.242Z,0.80
2023-02-19T21:28:52.234Z,0.50
2023-02-19T21:31:26.390Z,0.90
2023-02-19T21:34:00.163Z,1.20
2023-02-19T21:36:33.732Z,1.20
2023-02-19T21:39:07.628Z,0.40
2023-02-19T21:41:42.128Z,0.80
2023-02-19T21:44:16.327Z,0.70
2023-02-19T21:46:50.667Z,0.70
2023-02-19T21:49:24.451Z,0.50
2023-02-19T21:51:58.546Z,0.60
2023-02-19T21:54:32.471Z,0.40
2023-02-19T21:57:09.890Z,0.70
2023-02-19T21:59:45.286Z,0.60
2023-02-19T22:02:20.334Z,0.70
2023-02-19T22:04:58.078Z,0.70
2023-02-19T22:07:31.929Z,0.60
2023-02-19T22:10:08.290Z,0.50
2023-02-19T22:12:41.796Z,0.50
2023-02-19T22:15:15.784Z,0.60
2023-02-19T22:17:50.121Z,0.80
2023-02-19T22:20:24.124Z,0.30
2023-02-19T22:22:57.529Z,0.60
2023-02-19T22:25:31.803Z,0.90
2023-02-19T22:28:08.050Z,0.60
2023-02-19T22:30:43.267Z,0.40
2023-02-19T22:33:16.939Z,0.70
2023-02-19T22:35:50.768Z,0.70
2023-02-19T22:38:24.236Z,0.60
2023-02-19T22:40:59.903Z,0.90
2023-02-19T22:43:33.873Z,0.30
2023-02-19T22:46:10.398Z,0.50
2023-02-19T22:48:44.435Z,0.70
2023-02-19T22:51:19.115Z,0.50
2023-02-19T22:53:54.397Z,0.60
2023-02-19T22:56:29.370Z,0.50
2023-02-19T22:59:03.108Z,0.60
2023-02-19T23:01:37.059Z,0.40
2023-02-19T23:04:10.718Z,0.40
2023-02-19T23:06:45.860Z,0.50
2023-02-19T23:09:24.179Z,0.70
2023-02-19T23:12:05.330Z,0.60
2023-02-19T23:14:38.894Z,0.60
2023-02-19T23:17:13.059Z,0.70
2023-02-19T23:19:46.634Z,0.30
2023-02-19T23:22:22.340Z,0.70
2023-02-19T23:24:56.305Z,0.90
2023-02-19T23:27:30.540Z,0.70
2023-02-19T23:30:04.111Z,0.60
2023-02-19T23:32:37.787Z,0.80
2023-02-19T23:35:14.198Z,1.00
2023-02-19T23:37:49.253Z,0.80
2023-02-19T23:40:23.589Z,0.60
2023-02-19T23:42:59.064Z,0.60
2023-02-19T23:45:32.559Z,0.40
2023-02-19T23:48:06.391Z,0.50
2023-02-19T23:50:41.912Z,0.60
2023-02-19T23:53:16.599Z,0.70
2023-02-19T23:55:50.537Z,0.50
2023-02-19T23:58:26.079Z,0.50
